Time;durP1;ratioP1;P1;durP2;ratioP2;P2;SDS_P1;SDS_P2;PMS_P1;PMS_P2;Temp;Humidity;BMP_temperature;BMP_pressure;BME280_temperature;BME280_humidity;BME280_pressure;Samples;Min_cycle;Max_cycle;Signal;HPM_P1;HPM_P2
2021/09/30 00:00:59;;;;;;;;;;;;;;;13.85;73.10;100791.27;1634798;86;20875;-85
2021/09/30 00:03:25;;;;;;;;;;;;;;;13.85;73.01;100791.27;1630471;86;20154;-85
2021/09/30 00:05:51;;;;;;;;;;;;;;;13.85;73.05;100785.96;1632595;86;20178;-85
2021/09/30 00:08:17;;;;;;;;;;;;;;;13.91;73.04;100783.98;1631068;86;22009;-85
2021/09/30 00:10:58;;;;;;;;;;;;;;;13.93;72.78;100788.63;1629145;86;20144;-85
2021/09/30 00:13:36;;;;;;;;;;;;;;;13.89;72.74;100793.09;1629427;85;20175;-85
2021/09/30 00:45:29;;;;;;;;;;;;;;;13.53;73.83;100782.22;1635758;86;20136;-85
2021/09/30 00:47:59;;;;;;;;;;;;;;;13.52;73.81;100783.20;1632318;86;20198;-84
2021/09/30 00:53:34;;;;;;;;;;;;;;;13.55;73.92;100794.83;1635529;86;20132;-84
2021/09/30 01:18:42;;;;;;;;;;;;;;;13.46;74.57;100779.86;1635399;86;20158;-85
2021/09/30 01:57:55;;;;;;;;;;;;;;;13.51;74.68;100774.89;1628111;86;20162;-85
2021/09/30 02:21:02;;;;;;;;;;;;;;;13.38;74.82;100787.79;1633149;86;20191;-84
2021/09/30 02:23:33;;;;;;;;;;;;;;;13.37;75.08;100790.09;1641570;86;20123;-85
2021/09/30 02:28:33;;;;;;;;;;;;;;;13.32;75.12;100787.06;1634854;85;20218;-84
2021/09/30 03:00:35;;;;;;;;;;;;;;;13.11;82.28;100818.76;1645470;86;20123;-84
2021/09/30 03:03:01;;;;;;;;;;;;;;;13.14;82.50;100815.79;1621879;85;20947;-87
2021/09/30 03:05:27;;;;;;;;;;;;;;;13.10;83.68;100825.06;1633509;86;20188;-87
2021/09/30 03:07:53;;;;;;;;;;;;;;;13.04;84.88;100821.20;1643884;85;20119;-85
2021/09/30 03:10:20;;;;;;;;;;;;;;;13.05;85.60;100822.03;1637991;87;20180;-88
2021/09/30 03:12:45;;;;;;;;;;;;;;;13.07;85.85;100828.85;1620734;88;20201;-87
2021/09/30 03:15:29;;;;;;;;;;;;;;;12.98;87.35;100826.31;1600349;88;22116;-85
2021/09/30 03:17:55;;;;;;;;;;;;;;;12.92;89.69;100819.30;1620372;88;20489;-85
2021/09/30 03:23:21;;;;;;;;;;;;;;;12.97;88.18;100818.01;1611885;89;20158;-85
2021/09/30 03:25:48;;;;;;;;;;;;;;;13.02;87.83;100821.02;1638660;86;20202;-84
2021/09/30 03:28:16;;;;;;;;;;;;;;;12.98;88.42;100814.38;1636696;86;21135;-84
2021/09/30 03:30:41;;;;;;;;;;;;;;;12.96;88.66;100818.98;1636757;87;20572;-86
2021/09/30 03:33:09;;;;;;;;;;;;;;;12.92;88.44;100819.80;1628732;86;20199;-86
2021/09/30 03:35:35;;;;;;;;;;;;;;;12.89;88.78;100816.95;1629362;86;20172;-85
2021/09/30 03:38:02;;;;;;;;;;;;;;;12.84;88.69;100820.57;1628122;86;20200;-85
2021/09/30 03:40:27;;;;;;;;;;;;;;;12.77;89.09;100822.19;1633671;86;21071;-84
2021/09/30 03:42:53;;;;;;;;;;;;;;;12.76;89.02;100819.19;1638052;85;20206;-85
2021/09/30 03:45:19;;;;;;;;;;;;;;;12.72;89.47;100819.15;1630661;86;20210;-85
2021/09/30 03:47:45;;;;;;;;;;;;;;;12.72;89.61;100820.00;1633823;86;20171;-84
2021/09/30 03:50:17;;;;;;;;;;;;;;;12.65;90.08;100826.06;1638169;86;20827;-85
2021/09/30 04:00:35;;;;;;;;;;;;;;;12.58;91.19;100824.50;1630256;86;20126;-85
2021/09/30 04:03:01;;;;;;;;;;;;;;;12.47;91.46;100824.23;1633799;86;20166;-85
2021/09/30 04:05:26;;;;;;;;;;;;;;;12.52;91.31;100827.29;1632963;86;21056;-86
2021/09/30 04:07:52;;;;;;;;;;;;;;;12.50;91.25;100825.26;1629479;86;20147;-85
2021/09/30 04:10:18;;;;;;;;;;;;;;;12.48;91.75;100823.27;1630454;86;20870;-84
2021/09/30 04:12:43;;;;;;;;;;;;;;;12.51;91.74;100830.91;1631133;86;20140;-84
2021/09/30 04:15:09;;;;;;;;;;;;;;;12.51;91.88;100824.29;1629929;86;20442;-84
2021/09/30 04:17:36;;;;;;;;;;;;;;;12.48;91.49;100828.56;1633376;86;21142;-87
2021/09/30 04:20:03;;;;;;;;;;;;;;;12.46;91.75;100826.57;1608412;86;20214;-85
2021/09/30 04:22:28;;;;;;;;;;;;;;;12.46;91.85;100828.36;1630505;86;20211;-87
2021/09/30 04:24:54;;;;;;;;;;;;;;;12.48;91.75;100828.56;1620825;87;20147;-85
2021/09/30 04:27:19;;;;;;;;;;;;;;;12.43;92.15;100837.94;1622320;87;20146;-85
2021/09/30 04:29:45;;;;;;;;;;;;;;;12.43;92.72;100837.47;1626850;86;21201;-85
2021/09/30 04:32:11;;;;;;;;;;;;;;;12.38;92.93;100834.42;1621090;87;20150;-86
2021/09/30 04:34:36;;;;;;;;;;;;;;;12.34;92.74;100823.80;1619192;87;20251;-86
2021/09/30 04:37:02;;;;;;;;;;;;;;;12.38;93.12;100827.33;1621994;87;20183;-85
2021/09/30 04:39:28;;;;;;;;;;;;;;;12.37;93.79;100828.80;1620535;87;20244;-86
2021/09/30 04:41:53;;;;;;;;;;;;;;;12.39;93.12;100832.12;1621123;87;21143;-84
2021/09/30 04:44:22;;;;;;;;;;;;;;;12.38;93.37;100836.59;1619345;87;20184;-86
2021/09/30 04:46:47;;;;;;;;;;;;;;;12.39;93.45;100840.06;1617761;87;20123;-86
2021/09/30 04:49:12;;;;;;;;;;;;;;;12.33;94.67;100838.02;1619264;87;20127;-86
2021/09/30 04:51:38;;;;;;;;;;;;;;;12.38;93.69;100839.72;1618854;87;20187;-87
2021/09/30 04:54:03;;;;;;;;;;;;;;;12.35;94.39;100850.14;1618253;87;21152;-87
2021/09/30 04:56:29;;;;;;;;;;;;;;;12.36;94.98;100845.66;1612560;88;21247;-86
2021/09/30 04:58:55;;;;;;;;;;;;;;;12.34;95.25;100844.99;1609618;88;20210;-87
2021/09/30 05:01:21;;;;;;;;;;;;;;;12.35;94.92;100850.61;1614094;87;20197;-86
2021/09/30 05:03:46;;;;;;;;;;;;;;;12.39;94.73;100853.31;1611870;87;20172;-85
2021/09/30 05:06:12;;;;;;;;;;;;;;;12.33;95.16;100862.67;1640854;85;21885;-85
2021/09/30 05:08:39;;;;;;;;;;;;;;;12.33;95.34;100869.30;1650073;85;20149;-85
2021/09/30 05:11:05;;;;;;;;;;;;;;;12.39;94.81;100866.55;1648238;86;20205;-88
2021/09/30 05:13:37;;;;;;;;;;;;;;;12.36;95.46;100865.03;1627550;86;20671;-86
2021/09/30 05:16:05;;;;;;;;;;;;;;;12.37;95.64;100866.70;1630785;86;20261;-86
2021/09/30 05:18:30;;;;;;;;;;;;;;;12.40;95.32;100862.93;1632909;86;21000;-86
2021/09/30 05:20:56;;;;;;;;;;;;;;;12.35;95.04;100863.85;1643477;86;20142;-86
2021/09/30 05:23:24;;;;;;;;;;;;;;;12.45;94.63;100877.87;1636603;86;20161;-84
2021/09/30 05:25:50;;;;;;;;;;;;;;;12.43;94.79;100882.50;1634080;86;20132;-84
2021/09/30 05:28:15;;;;;;;;;;;;;;;12.40;94.94;100888.09;1640492;86;20216;-89
2021/09/30 05:30:41;;;;;;;;;;;;;;;12.36;95.21;100884.89;1632042;86;21125;-86
2021/09/30 05:33:07;;;;;;;;;;;;;;;12.39;95.07;100891.72;1634508;86;20323;-84
2021/09/30 05:35:32;;;;;;;;;;;;;;;12.38;95.26;100892.69;1631071;86;20171;-84
2021/09/30 05:37:58;;;;;;;;;;;;;;;12.34;95.48;100901.94;1634973;86;20191;-87
2021/09/30 05:40:24;;;;;;;;;;;;;;;12.35;95.25;100905.77;1627213;86;20145;-87
2021/09/30 05:42:50;;;;;;;;;;;;;;;12.37;95.06;100902.46;1630429;86;22483;-86
2021/09/30 05:45:17;;;;;;;;;;;;;;;12.41;95.39;100912.25;1636346;85;20142;-88
2021/09/30 05:47:44;;;;;;;;;;;;;;;12.36;95.57;100913.20;1629975;86;20215;-85
2021/09/30 05:50:10;;;;;;;;;;;;;;;12.36;95.66;100910.55;1633363;86;20232;-85
2021/09/30 05:52:35;;;;;;;;;;;;;;;12.38;95.41;100917.85;1629150;86;20229;-88
2021/09/30 05:55:01;;;;;;;;;;;;;;;12.39;95.64;100924.33;1633929;86;22030;-85
2021/09/30 05:57:27;;;;;;;;;;;;;;;12.39;95.10;100927.48;1629215;86;20204;-84
2021/09/30 05:59:53;;;;;;;;;;;;;;;12.40;95.14;100937.09;1635473;86;20191;-85
2021/09/30 06:13:09;;;;;;;;;;;;;;;12.35;95.15;100951.26;1640125;86;20170;-84
2021/09/30 06:15:35;;;;;;;;;;;;;;;12.27;95.75;100949.84;1630317;86;20148;-87
2021/09/30 06:18:00;;;;;;;;;;;;;;;12.28;95.34;100952.84;1632208;86;20174;-85
2021/09/30 06:20:26;;;;;;;;;;;;;;;12.21;96.40;100962.70;1633674;86;21192;-84
2021/09/30 06:22:52;;;;;;;;;;;;;;;12.27;96.43;100949.84;1634987;86;20189;-83
2021/09/30 06:25:18;;;;;;;;;;;;;;;12.28;96.27;100962.12;1635678;86;20214;-87
2021/09/30 06:27:44;;;;;;;;;;;;;;;12.32;96.42;100956.84;1634049;86;20209;-86
2021/09/30 06:30:10;;;;;;;;;;;;;;;12.33;96.54;100967.80;1631656;86;20232;-86
2021/09/30 06:32:36;;;;;;;;;;;;;;;12.34;96.23;100964.17;1629495;86;21085;-86
2021/09/30 06:35:01;;;;;;;;;;;;;;;12.33;95.98;100962.50;1619193;88;20159;-85
2021/09/30 06:37:27;;;;;;;;;;;;;;;12.30;96.24;100970.23;1634530;86;20269;-88
2021/09/30 06:39:52;;;;;;;;;;;;;;;12.25;97.19;100967.70;1639221;86;20119;-84
2021/09/30 06:42:18;;;;;;;;;;;;;;;12.15;98.51;100965.08;1638159;85;20485;-84
2021/09/30 06:44:44;;;;;;;;;;;;;;;12.08;99.27;100968.81;1641951;86;21172;-84
2021/09/30 06:47:09;;;;;;;;;;;;;;;12.09;100.00;100963.88;1637119;86;20495;-85
2021/09/30 06:49:35;;;;;;;;;;;;;;;12.13;100.00;100965.23;1634152;86;20693;-86
2021/09/30 06:52:01;;;;;;;;;;;;;;;12.18;100.00;100960.34;1638121;86;20870;-86
2021/09/30 06:54:26;;;;;;;;;;;;;;;12.20;100.00;100955.73;1642976;86;20175;-88
2021/09/30 06:56:54;;;;;;;;;;;;;;;12.22;100.00;100960.88;1643913;86;21165;-86
2021/09/30 06:59:22;;;;;;;;;;;;;;;12.26;100.00;100972.86;1635439;86;20183;-86
2021/09/30 07:01:47;;;;;;;;;;;;;;;12.21;100.00;100969.80;1635923;86;20143;-86
2021/09/30 07:04:13;;;;;;;;;;;;;;;12.24;100.00;100971.33;1637586;86;20150;-85
2021/09/30 07:06:38;;;;;;;;;;;;;;;12.29;100.00;100979.66;1625670;86;20261;-88
2021/09/30 07:09:04;;;;;;;;;;;;;;;12.29;100.00;100977.01;1622036;86;21043;-84
2021/09/30 07:11:29;;;;;;;;;;;;;;;12.32;100.00;100972.73;1625285;87;20278;-85
2021/09/30 07:13:55;;;;;;;;;;;;;;;12.34;99.80;100982.72;1622436;87;20445;-87
2021/09/30 07:16:21;;;;;;;;;;;;;;;12.33;100.00;100986.34;1623613;85;20647;-89
2021/09/30 07:18:46;;;;;;;;;;;;;;;12.32;100.00;100986.84;1622830;87;20171;-88
2021/09/30 07:21:12;;;;;;;;;;;;;;;12.34;100.00;100990.66;1623312;87;21955;-85
2021/09/30 07:23:37;;;;;;;;;;;;;;;12.40;100.00;100983.45;1622961;87;20234;-86
2021/09/30 07:26:07;;;;;;;;;;;;;;;12.49;100.00;100975.09;1622641;87;20188;-86
2021/09/30 07:28:31;;;;;;;;;;;;;;;12.55;99.67;100979.33;1621366;87;20163;-86
2021/09/30 07:30:58;;;;;;;;;;;;;;;12.50;99.53;100981.56;1623246;87;20229;-86
2021/09/30 07:33:24;;;;;;;;;;;;;;;12.43;100.00;100981.83;1622865;87;20185;-86
2021/09/30 07:35:51;;;;;;;;;;;;;;;12.48;100.00;100983.53;1629625;85;20182;-90
2021/09/30 07:38:18;;;;;;;;;;;;;;;12.56;99.93;100992.89;1611779;87;20165;-86
2021/09/30 07:40:44;;;;;;;;;;;;;;;12.55;99.79;100991.25;1612906;87;20172;-85
2021/09/30 07:43:12;;;;;;;;;;;;;;;12.51;99.90;100980.59;1645745;85;20461;-87
2021/09/30 07:45:38;;;;;;;;;;;;;;;12.60;100.00;100980.20;1644214;86;22126;-87
2021/09/30 07:48:04;;;;;;;;;;;;;;;12.69;100.00;100989.91;1641696;86;20201;-86
2021/09/30 07:50:31;;;;;;;;;;;;;;;12.71;100.00;100989.77;1612376;87;20405;-84
2021/09/30 07:52:57;;;;;;;;;;;;;;;12.79;99.76;100989.84;1619360;87;20191;-86
2021/09/30 07:55:23;;;;;;;;;;;;;;;12.87;99.91;100995.72;1610670;87;20257;-84
2021/09/30 07:57:49;;;;;;;;;;;;;;;12.87;100.00;100998.37;1630094;85;21068;-82
2021/09/30 08:00:15;;;;;;;;;;;;;;;12.91;100.00;101005.88;1619943;87;20155;-87
2021/09/30 08:02:41;;;;;;;;;;;;;;;12.90;100.00;101008.17;1620845;87;20274;-85
2021/09/30 08:05:07;;;;;;;;;;;;;;;12.93;99.23;101006.54;1621682;87;20182;-84
2021/09/30 08:07:33;;;;;;;;;;;;;;;12.94;99.03;101015.31;1623403;87;20234;-86
2021/09/30 08:09:58;;;;;;;;;;;;;;;12.88;99.22;101020.75;1626100;86;21140;-85
2021/09/30 08:12:25;;;;;;;;;;;;;;;12.99;99.13;101024.15;1622915;86;20266;-85
2021/09/30 08:14:52;;;;;;;;;;;;;;;12.84;99.98;101026.50;1629848;86;20228;-84
2021/09/30 08:17:18;;;;;;;;;;;;;;;12.82;100.00;101024.00;1624793;86;20131;-85
2021/09/30 08:19:44;;;;;;;;;;;;;;;12.76;100.00;101025.92;1622081;86;20165;-85
2021/09/30 08:22:09;;;;;;;;;;;;;;;12.75;100.00;101029.54;1625493;86;21036;-85
2021/09/30 08:24:35;;;;;;;;;;;;;;;12.68;100.00;101035.11;1627523;88;20481;-84
2021/09/30 08:27:00;;;;;;;;;;;;;;;12.69;100.00;101040.73;1631263;86;20227;-85
2021/09/30 08:29:26;;;;;;;;;;;;;;;12.57;100.00;101044.09;1633347;85;20694;-87
2021/09/30 08:31:51;;;;;;;;;;;;;;;12.50;100.00;101046.47;1637782;86;20164;-86
2021/09/30 08:34:17;;;;;;;;;;;;;;;12.51;100.00;101045.50;1639396;86;21087;-84
2021/09/30 08:36:43;;;;;;;;;;;;;;;12.47;100.00;101052.06;1630923;86;20158;-83
2021/09/30 08:39:09;;;;;;;;;;;;;;;12.47;100.00;101050.73;1632441;86;20198;-84
2021/09/30 08:41:35;;;;;;;;;;;;;;;12.46;100.00;101050.41;1635194;86;20238;-84
2021/09/30 08:44:00;;;;;;;;;;;;;;;12.49;100.00;101052.77;1632538;86;20165;-86
2021/09/30 08:46:26;;;;;;;;;;;;;;;12.52;100.00;101052.48;1632845;86;21118;-81
2021/09/30 08:48:52;;;;;;;;;;;;;;;12.46;100.00;101050.88;1635844;85;20450;-83
2021/09/30 08:51:17;;;;;;;;;;;;;;;12.50;100.00;101057.06;1639092;86;20142;-84
2021/09/30 08:53:43;;;;;;;;;;;;;;;12.35;100.00;101058.52;1630526;86;20184;-81
2021/09/30 08:56:09;;;;;;;;;;;;;;;12.37;100.00;101063.20;1633185;86;20121;-81
2021/09/30 08:58:36;;;;;;;;;;;;;;;12.40;100.00;101058.95;1636939;86;21066;-83
2021/09/30 09:01:03;;;;;;;;;;;;;;;12.39;100.00;101049.32;1636501;86;20815;-82
2021/09/30 09:03:35;;;;;;;;;;;;;;;12.44;100.00;101059.48;1601231;87;20530;-84
2021/09/30 09:06:03;;;;;;;;;;;;;;;12.38;100.00;101067.50;1629766;86;20959;-83
2021/09/30 09:08:28;;;;;;;;;;;;;;;12.45;100.00;101065.13;1620242;87;20136;-86
2021/09/30 09:10:55;;;;;;;;;;;;;;;12.43;100.00;101073.22;1622074;88;21258;-85
2021/09/30 09:13:22;;;;;;;;;;;;;;;12.35;100.00;101073.09;1622637;87;20185;-85
2021/09/30 09:15:59;;;;;;;;;;;;;;;12.35;100.00;101077.06;1617384;88;20185;-84
2021/09/30 09:18:46;;;;;;;;;;;;;;;12.48;100.00;101081.56;1587721;88;20224;-84
2021/09/30 09:21:22;;;;;;;;;;;;;;;12.59;100.00;101083.69;1603699;88;20511;-85
2021/09/30 09:23:58;;;;;;;;;;;;;;;12.64;100.00;101089.38;1621891;87;20183;-88
2021/09/30 09:26:29;;;;;;;;;;;;;;;12.63;100.00;101083.25;1616839;87;20202;-83
2021/09/30 09:29:10;;;;;;;;;;;;;;;12.72;100.00;101094.77;1595358;88;20204;-84
2021/09/30 09:31:38;;;;;;;;;;;;;;;12.76;100.00;101090.85;1598068;89;20250;-83
2021/09/30 09:34:20;;;;;;;;;;;;;;;12.68;100.00;101094.23;1595816;89;20186;-84
2021/09/30 09:36:50;;;;;;;;;;;;;;;12.76;100.00;101093.50;1597420;88;21143;-85
2021/09/30 09:39:13;;;;;;;;;;;;;;;12.80;100.00;101092.70;1594362;89;20239;-82
2021/09/30 09:41:39;;;;;;;;;;;;;;;12.90;100.00;101084.22;1587030;88;20182;-81
2021/09/30 09:44:05;;;;;;;;;;;;;;;13.01;100.00;101085.84;1590389;88;20214;-84
2021/09/30 09:46:34;;;;;;;;;;;;;;;13.06;100.00;101096.82;1603543;87;20222;-86
2021/09/30 09:49:06;;;;;;;;;;;;;;;13.16;100.00;101088.33;1603773;87;21930;-84
2021/09/30 09:51:43;;;;;;;;;;;;;;;13.35;100.00;101083.39;1615784;88;20193;-86
2021/09/30 09:54:21;;;;;;;;;;;;;;;13.46;100.00;101090.30;1618274;88;20185;-86
2021/09/30 09:56:53;;;;;;;;;;;;;;;13.53;100.00;101091.37;1617498;88;20193;-86
2021/09/30 09:59:30;;;;;;;;;;;;;;;13.63;100.00;101092.60;1619804;87;20160;-87
2021/09/30 10:01:57;;;;;;;;;;;;;;;13.82;100.00;101088.94;1618730;87;21246;-87
2021/09/30 10:04:24;;;;;;;;;;;;;;;13.98;100.00;101091.72;1619548;88;20517;-86
2021/09/30 10:06:50;;;;;;;;;;;;;;;14.13;100.00;101095.95;1572949;88;20742;-86
2021/09/30 10:09:15;;;;;;;;;;;;;;;14.25;100.00;101095.71;1636091;86;20151;-85
2021/09/30 10:11:41;;;;;;;;;;;;;;;14.29;100.00;101093.91;1618371;87;20178;-86
2021/09/30 10:14:09;;;;;;;;;;;;;;;14.47;100.00;101091.67;1593151;87;40835;-88
2021/09/30 10:16:36;;;;;;;;;;;;;;;14.51;100.00;101099.64;1647297;85;20249;-83
2021/09/30 10:19:04;;;;;;;;;;;;;;;14.64;100.00;101098.76;1624400;88;20926;-84
2021/09/30 10:21:32;;;;;;;;;;;;;;;14.75;100.00;101103.46;1612854;88;20125;-86
2021/09/30 10:24:02;;;;;;;;;;;;;;;14.76;100.00;101109.09;1588301;88;20173;-85
2021/09/30 10:26:40;;;;;;;;;;;;;;;14.76;100.00;101109.09;1625753;86;20166;-87
2021/09/30 10:29:05;;;;;;;;;;;;;;;14.76;100.00;101109.09;1632634;86;20617;-85
2021/09/30 10:31:35;;;;;;;;;;;;;;;14.74;100.00;101116.41;1629887;86;20143;-87
2021/09/30 10:34:03;;;;;;;;;;;;;;;14.80;100.00;101111.78;1630060;86;20490;-85
2021/09/30 10:36:34;;;;;;;;;;;;;;;14.82;100.00;101108.45;1622382;87;20891;-85
2021/09/30 10:39:23;;;;;;;;;;;;;;;14.87;99.85;101104.84;1631919;86;21116;-87
2021/09/30 10:41:50;;;;;;;;;;;;;;;14.83;99.99;101104.81;1631953;86;20779;-86
2021/09/30 10:44:17;;;;;;;;;;;;;;;14.80;99.33;101111.78;1633658;86;20489;-87
2021/09/30 10:46:45;;;;;;;;;;;;;;;14.82;99.06;101111.12;1632024;86;20599;-86
2021/09/30 10:49:34;;;;;;;;;;;;;;;14.79;98.47;101106.97;1629609;86;20234;-84
2021/09/30 10:52:14;;;;;;;;;;;;;;;14.74;97.90;101117.23;1634341;86;21222;-86
2021/09/30 10:54:40;;;;;;;;;;;;;;;14.75;99.06;101120.23;1629230;86;20131;-86
2021/09/30 10:57:38;;;;;;;;;;;;;;;14.67;99.45;101121.55;1636819;86;20160;-86
2021/09/30 11:00:09;;;;;;;;;;;;;;;14.62;100.00;101118.50;1640064;86;20727;-85
2021/09/30 11:02:55;;;;;;;;;;;;;;;14.55;100.00;101132.91;1635388;86;20337;-86
2021/09/30 11:05:21;;;;;;;;;;;;;;;14.47;100.00;101135.52;1626059;86;21203;-85
2021/09/30 11:07:46;;;;;;;;;;;;;;;14.34;100.00;101139.91;1628665;87;20608;-86
2021/09/30 11:10:19;;;;;;;;;;;;;;;14.20;100.00;101140.02;1599798;86;20158;-86
2021/09/30 11:13:19;;;;;;;;;;;;;;;14.14;100.00;101148.09;1634286;86;20197;-86
2021/09/30 11:16:12;;;;;;;;;;;;;;;13.98;100.00;101150.14;1640215;86;20186;-84
2021/09/30 11:18:55;;;;;;;;;;;;;;;13.91;100.00;101148.26;1641165;86;21132;-85
2021/09/30 11:21:30;;;;;;;;;;;;;;;13.92;100.00;101147.25;1636790;86;20199;-84
2021/09/30 11:24:12;;;;;;;;;;;;;;;13.77;100.00;101149.63;1582785;88;20219;-89
2021/09/30 11:26:54;;;;;;;;;;;;;;;13.73;100.00;101150.91;1604934;87;21052;-87
2021/09/30 11:29:25;;;;;;;;;;;;;;;13.71;100.00;101159.53;1630987;86;20167;-86
2021/09/30 11:32:01;;;;;;;;;;;;;;;13.58;100.00;101155.91;1588541;88;20217;-86
2021/09/30 11:34:29;;;;;;;;;;;;;;;13.62;100.00;101162.59;1618944;87;20118;-85
2021/09/30 11:36:58;;;;;;;;;;;;;;;13.53;99.72;101159.03;1590475;89;20156;-85
2021/09/30 11:39:32;;;;;;;;;;;;;;;13.53;100.00;101153.73;1593905;89;20263;-86
2021/09/30 11:41:57;;;;;;;;;;;;;;;13.47;100.00;101151.67;1601601;87;20163;-84
2021/09/30 11:44:23;;;;;;;;;;;;;;;13.46;100.00;101150.00;1625834;86;21108;-85
2021/09/30 11:46:54;;;;;;;;;;;;;;;13.55;100.00;101146.44;1631900;86;20155;-85
2021/09/30 11:49:21;;;;;;;;;;;;;;;13.53;100.00;101154.20;1591884;88;20624;-88
2021/09/30 11:51:52;;;;;;;;;;;;;;;13.45;100.00;101144.34;1588196;88;20590;-88
2021/09/30 11:54:20;;;;;;;;;;;;;;;13.38;100.00;101143.29;1584269;88;20234;-84
2021/09/30 11:56:54;;;;;;;;;;;;;;;13.40;100.00;101155.41;1599154;88;21421;-83
2021/09/30 11:59:23;;;;;;;;;;;;;;;13.42;100.00;101155.25;1610997;87;20201;-85
2021/09/30 12:01:50;;;;;;;;;;;;;;;13.41;100.00;101152.28;1591999;87;20991;-87
2021/09/30 12:04:49;;;;;;;;;;;;;;;13.35;100.00;101159.51;1614329;87;20197;-85
2021/09/30 12:07:27;;;;;;;;;;;;;;;13.28;100.00;101162.72;1597583;86;20189;-85
2021/09/30 12:09:54;;;;;;;;;;;;;;;13.34;100.00;101171.09;1618957;86;20509;-85
2021/09/30 12:12:36;;;;;;;;;;;;;;;13.32;100.00;101167.73;1618355;86;21015;-86
2021/09/30 12:15:04;;;;;;;;;;;;;;;13.32;100.00;101167.73;1622402;86;20311;-85
2021/09/30 12:17:32;;;;;;;;;;;;;;;13.28;100.00;101175.13;1625260;86;20156;-84
2021/09/30 12:20:00;;;;;;;;;;;;;;;13.36;100.00;101180.58;1619724;86;20166;-84
2021/09/30 12:22:29;;;;;;;;;;;;;;;13.36;100.00;101179.73;1622643;86;21083;-85
2021/09/30 12:24:56;;;;;;;;;;;;;;;13.35;100.00;101182.06;1625835;86;20423;-88
2021/09/30 12:27:24;;;;;;;;;;;;;;;13.35;100.00;101183.38;1637809;85;20106;-84
2021/09/30 12:29:51;;;;;;;;;;;;;;;13.35;100.00;101191.34;1603976;87;20186;-86
2021/09/30 12:32:19;;;;;;;;;;;;;;;13.48;100.00;101180.36;1638330;85;20199;-86
2021/09/30 12:34:55;;;;;;;;;;;;;;;13.41;100.00;101193.41;1637859;85;21009;-85
2021/09/30 12:37:29;;;;;;;;;;;;;;;13.31;100.00;101188.09;1636722;85;20247;-84
2021/09/30 12:40:15;;;;;;;;;;;;;;;13.30;100.00;101186.45;1640203;85;20515;-87
2021/09/30 12:42:56;;;;;;;;;;;;;;;13.37;100.00;101180.91;1622052;87;20532;-86
2021/09/30 12:45:22;;;;;;;;;;;;;;;13.40;100.00;101175.80;1610494;85;20186;-86
2021/09/30 12:47:48;;;;;;;;;;;;;;;13.41;100.00;101178.81;1634804;85;22290;-84
2021/09/30 12:50:17;;;;;;;;;;;;;;;13.42;100.00;101177.33;1633783;85;20141;-85
2021/09/30 12:52:45;;;;;;;;;;;;;;;13.41;100.00;101179.63;1640147;86;21051;-90
2021/09/30 12:55:17;;;;;;;;;;;;;;;13.50;100.00;101181.89;1631260;85;20121;-88
2021/09/30 12:57:43;;;;;;;;;;;;;;;13.53;100.00;101185.58;1637585;85;20183;-86
2021/09/30 13:00:13;;;;;;;;;;;;;;;13.67;100.00;101179.38;1630600;85;21227;-85
2021/09/30 13:02:39;;;;;;;;;;;;;;;13.57;99.83;101183.45;1635539;85;20207;-86
2021/09/30 13:05:06;;;;;;;;;;;;;;;13.58;100.00;101183.77;1638133;85;20537;-83
2021/09/30 13:07:58;;;;;;;;;;;;;;;13.57;98.99;101189.58;1610336;85;20218;-87
2021/09/30 13:10:34;;;;;;;;;;;;;;;13.70;99.89;101181.73;1637219;86;20235;-86
2021/09/30 13:13:07;;;;;;;;;;;;;;;13.73;99.47;101189.40;1626201;86;20573;-85
2021/09/30 13:15:43;;;;;;;;;;;;;;;13.77;99.31;101198.23;1623639;86;20354;-88
2021/09/30 13:18:11;;;;;;;;;;;;;;;13.79;99.72;101195.44;1640818;86;20139;-86
2021/09/30 13:20:36;;;;;;;;;;;;;;;13.64;99.94;101191.12;1642586;86;20184;-86
2021/09/30 13:23:02;;;;;;;;;;;;;;;13.75;100.00;101190.93;1637510;86;20303;-88
2021/09/30 13:25:28;;;;;;;;;;;;;;;13.79;99.68;101192.78;1635691;86;21048;-88
2021/09/30 13:27:53;;;;;;;;;;;;;;;13.75;100.00;101198.89;1636119;85;20174;-85
2021/09/30 13:30:21;;;;;;;;;;;;;;;13.76;100.00;101194.41;1638257;85;20263;-85
2021/09/30 13:32:47;;;;;;;;;;;;;;;13.74;100.00;101196.39;1633053;86;20938;-85
2021/09/30 13:35:13;;;;;;;;;;;;;;;13.79;99.91;101195.44;1621100;87;20238;-86
2021/09/30 13:37:38;;;;;;;;;;;;;;;13.77;100.00;101199.56;1621941;87;21011;-87
2021/09/30 13:40:06;;;;;;;;;;;;;;;13.84;100.00;101197.13;1615391;87;20185;-87
2021/09/30 13:42:33;;;;;;;;;;;;;;;13.93;100.00;101188.76;1619509;87;20216;-91
2021/09/30 13:44:59;;;;;;;;;;;;;;;13.97;100.00;101189.63;1635059;86;20211;-87
2021/09/30 13:47:25;;;;;;;;;;;;;;;13.90;100.00;101192.54;1634286;86;20214;-86
2021/09/30 13:49:51;;;;;;;;;;;;;;;13.86;100.00;101192.52;1635836;86;21176;-85
2021/09/30 13:52:17;;;;;;;;;;;;;;;13.95;100.00;101192.08;1631008;86;20201;-86
2021/09/30 13:54:43;;;;;;;;;;;;;;;14.03;100.00;101191.32;1627065;86;20148;-89
2021/09/30 13:57:10;;;;;;;;;;;;;;;14.07;100.00;101189.53;1627606;86;20233;-94
2021/09/30 13:59:36;;;;;;;;;;;;;;;14.08;100.00;101187.73;1633226;86;20173;-89
2021/09/30 14:02:02;;;;;;;;;;;;;;;13.92;100.00;101183.95;1606773;87;20977;-88
2021/09/30 14:04:28;;;;;;;;;;;;;;;13.90;100.00;101185.91;1634781;86;20162;-88
2021/09/30 14:06:55;;;;;;;;;;;;;;;13.86;100.00;101181.91;1628671;86;20139;-89
2021/09/30 14:09:22;;;;;;;;;;;;;;;13.97;100.00;101190.95;1627854;87;20164;-90
2021/09/30 14:11:48;;;;;;;;;;;;;;;13.99;100.00;101192.95;1619164;88;20287;-91
2021/09/30 14:14:13;;;;;;;;;;;;;;;14.03;100.00;101190.00;1618224;88;21901;-86
2021/09/30 14:16:40;;;;;;;;;;;;;;;13.97;99.93;101202.91;1617014;88;20151;-86
2021/09/30 14:19:06;;;;;;;;;;;;;;;13.90;100.00;101199.18;1620028;87;20156;-85
2021/09/30 14:21:31;;;;;;;;;;;;;;;13.92;100.00;101196.37;1631151;87;20167;-86
2021/09/30 14:23:57;;;;;;;;;;;;;;;13.93;100.00;101196.22;1633437;86;20131;-86
2021/09/30 14:26:23;;;;;;;;;;;;;;;13.96;100.00;101191.93;1633207;86;21136;-87
2021/09/30 14:28:50;;;;;;;;;;;;;;;14.06;100.00;101191.02;1632139;86;20210;-87
2021/09/30 14:31:17;;;;;;;;;;;;;;;14.04;100.00;101194.33;1628709;87;20162;-85
2021/09/30 14:33:44;;;;;;;;;;;;;;;14.03;100.00;101197.96;1635432;86;20211;-88
2021/09/30 14:36:11;;;;;;;;;;;;;;;14.03;100.00;101197.96;1626004;87;20144;-87
2021/09/30 14:38:37;;;;;;;;;;;;;;;13.97;100.00;101188.80;1628570;87;21181;-88
2021/09/30 14:41:02;;;;;;;;;;;;;;;13.96;100.00;101191.11;1629939;87;20345;-87
2021/09/30 14:43:36;;;;;;;;;;;;;;;13.96;100.00;101189.78;1630132;87;20143;-86
2021/09/30 14:45:59;;;;;;;;;;;;;;;13.99;100.00;101187.64;1631064;87;20119;-86
2021/09/30 14:48:24;;;;;;;;;;;;;;;14.03;100.00;101185.53;1631394;86;20245;-88
2021/09/30 14:50:52;;;;;;;;;;;;;;;14.05;100.00;101190.70;1636160;87;21226;-86
2021/09/30 14:53:17;;;;;;;;;;;;;;;14.07;100.00;101191.37;1627859;87;20780;-87
2021/09/30 14:55:43;;;;;;;;;;;;;;;14.09;100.00;101193.37;1618315;87;21538;-87
2021/09/30 14:58:08;;;;;;;;;;;;;;;14.08;100.00;101190.39;1628837;87;20142;-89
2021/09/30 15:00:35;;;;;;;;;;;;;;;13.99;100.00;101196.94;1635684;87;20175;-87
2021/09/30 15:03:05;;;;;;;;;;;;;;;13.97;100.00;101186.15;1629485;87;21108;-86
2021/09/30 15:05:30;;;;;;;;;;;;;;;13.99;100.00;101186.31;1629317;86;21153;-88
2021/09/30 15:07:57;;;;;;;;;;;;;;;13.96;100.00;101189.78;1629936;86;20213;-88
2021/09/30 15:10:23;;;;;;;;;;;;;;;14.03;100.00;101197.96;1633161;87;20119;-84
2021/09/30 15:12:48;;;;;;;;;;;;;;;13.91;100.00;101202.19;1631852;86;20119;-88
2021/09/30 15:15:14;;;;;;;;;;;;;;;13.86;100.00;101203.14;1636322;87;21042;-86
2021/09/30 15:21:20;;;;;;;;;;;;;;;13.93;100.00;101193.56;1615955;87;20123;-85
2021/09/30 15:22:39;;;;;;;;;;;;;;;14.02;100.00;101197.64;1614207;87;20217;-86
2021/09/30 15:25:05;;;;;;;;;;;;;;;14.07;100.00;101200.16;1622026;87;20517;-86